createdAt,value
2022-11-25T00:00:10.218Z,32.47
2022-11-25T00:03:18.107Z,32.50
2022-11-25T00:06:34.981Z,31.35
2022-11-25T00:09:39.791Z,30.83
2022-11-25T00:12:44.535Z,36.03
2022-11-25T00:15:49.445Z,33.05
2022-11-25T00:18:57.758Z,23.30
2022-11-25T00:22:02.956Z,25.65
2022-11-25T00:25:08.500Z,30.45
2022-11-25T00:28:13.772Z,22.38
2022-11-25T00:31:24.905Z,22.27
2022-11-25T00:34:30.094Z,17.98
2022-11-25T00:37:35.128Z,20.02
2022-11-25T00:40:43.101Z,20.00
2022-11-25T00:44:06.390Z,22.80
2022-11-25T00:47:17.171Z,21.75
2022-11-25T00:50:22.195Z,19.88
2022-11-25T00:53:27.558Z,18.55
2022-11-25T00:56:32.578Z,15.57
2022-11-25T00:59:37.456Z,19.05
2022-11-25T01:02:42.479Z,13.48
2022-11-25T01:05:47.605Z,14.30
2022-11-25T01:08:52.599Z,18.27
2022-11-25T01:11:58.170Z,17.98
2022-11-25T01:15:03.343Z,22.92
2022-11-25T01:18:08.327Z,19.15
2022-11-25T01:21:15.724Z,16.60
2022-11-25T01:24:20.680Z,17.40
2022-11-25T01:27:25.628Z,17.27
2022-11-25T01:30:30.944Z,16.40
2022-11-25T01:33:36.281Z,17.90
2022-11-25T01:36:41.245Z,17.35
2022-11-25T01:39:45.934Z,21.30
2022-11-25T01:42:50.836Z,16.88
2022-11-25T01:46:09.067Z,18.23
2022-11-25T01:49:43.243Z,13.90
2022-11-25T01:52:50.977Z,15.10
2022-11-25T01:56:00.546Z,13.75
2022-11-25T01:59:05.636Z,19.15
2022-11-25T02:02:15.116Z,15.05
2022-11-25T02:05:35.644Z,16.48
2022-11-25T02:08:41.149Z,16.40
2022-11-25T02:11:46.453Z,13.18
2022-11-25T02:14:52.152Z,14.20
2022-11-25T02:17:57.063Z,10.73
2022-11-25T02:21:02.362Z,11.80
2022-11-25T02:24:15.376Z,12.63
2022-11-25T02:27:21.824Z,11.98
2022-11-25T02:30:26.909Z,14.27
2022-11-25T02:33:32.548Z,13.73
2022-11-25T02:36:37.671Z,12.50
2022-11-25T02:39:42.833Z,13.45
2022-11-25T02:42:49.911Z,12.80
2022-11-25T02:46:06.568Z,12.45
2022-11-25T02:49:11.601Z,11.57
2022-11-25T02:52:19.458Z,13.77
2022-11-25T02:55:24.444Z,13.57
2022-11-25T02:58:29.829Z,13.45
2022-11-25T03:01:35.623Z,12.75
2022-11-25T03:04:43.887Z,10.45
2022-11-25T03:07:49.614Z,12.65
2022-11-25T03:10:57.273Z,12.70
2022-11-25T03:14:02.222Z,11.98
2022-11-25T03:17:07.061Z,13.18
2022-11-25T03:20:13.134Z,13.32
2022-11-25T03:23:17.954Z,11.68
2022-11-25T03:26:22.907Z,13.85
2022-11-25T03:29:27.802Z,12.38
2022-11-25T03:32:32.951Z,12.23
2022-11-25T03:35:38.075Z,12.05
2022-11-25T03:38:43.168Z,15.30
2022-11-25T03:41:48.303Z,12.50
2022-11-25T03:44:53.242Z,13.63
2022-11-25T03:47:58.192Z,13.13
2022-11-25T03:51:04.216Z,13.88
2022-11-25T03:54:09.625Z,16.90
2022-11-25T03:57:34.824Z,17.85
2022-11-25T04:00:39.864Z,14.52
2022-11-25T04:03:44.646Z,18.98
2022-11-25T04:06:49.562Z,19.80
2022-11-25T04:09:54.585Z,16.70
2022-11-25T04:13:03.958Z,15.77
2022-11-25T04:16:22.952Z,22.52
2022-11-25T04:19:29.589Z,19.88
2022-11-25T04:22:34.899Z,18.40
2022-11-25T04:25:42.210Z,21.73
2022-11-25T04:28:53.668Z,18.35
2022-11-25T04:31:59.418Z,18.02
2022-11-25T04:35:05.086Z,23.05
2022-11-25T04:38:11.425Z,17.00
2022-11-25T04:41:17.412Z,18.15
2022-11-25T04:44:23.926Z,18.83
2022-11-25T04:47:30.145Z,18.10
2022-11-25T04:50:34.744Z,20.27
2022-11-25T04:53:45.789Z,22.88
2022-11-25T04:57:02.571Z,20.73
2022-11-25T05:00:10.346Z,19.75
2022-11-25T05:03:15.844Z,20.20
2022-11-25T05:06:20.788Z,25.08
2022-11-25T05:09:25.968Z,24.23
2022-11-25T05:12:55.739Z,26.95
2022-11-25T05:16:02.066Z,28.35
2022-11-25T05:19:09.716Z,26.20
2022-11-25T05:22:18.525Z,23.02
2022-11-25T05:25:24.903Z,22.50
2022-11-25T05:28:44.092Z,20.13
2022-11-25T05:31:50.020Z,23.10
2022-11-25T05:34:55.103Z,20.88
2022-11-25T05:38:01.080Z,24.80
2022-11-25T05:41:08.055Z,25.55
2022-11-25T05:44:13.317Z,23.05
2022-11-25T05:47:19.113Z,25.00
2022-11-25T05:50:25.943Z,28.00
2022-11-25T05:53:55.261Z,25.35
2022-11-25T05:57:04.323Z,25.08
2022-11-25T06:00:19.130Z,25.63
2022-11-25T06:03:30.763Z,19.75
2022-11-25T06:06:35.502Z,24.02
2022-11-25T06:09:40.428Z,20.70
2022-11-25T06:12:45.526Z,20.42
2022-11-25T06:15:50.680Z,21.90
2022-11-25T06:18:57.094Z,26.13
2022-11-25T06:22:01.869Z,19.60
2022-11-25T06:25:08.615Z,25.50
2022-11-25T06:28:15.443Z,22.38
2022-11-25T06:31:26.576Z,23.50
2022-11-25T06:34:42.765Z,25.27
2022-11-25T06:38:05.871Z,25.90
2022-11-25T06:41:11.077Z,31.55
2022-11-25T06:44:16.093Z,27.63
2022-11-25T06:47:21.047Z,22.65
2022-11-25T06:50:25.854Z,24.48
2022-11-25T06:53:31.717Z,24.08
2022-11-25T06:56:36.538Z,22.58
2022-11-25T06:59:41.599Z,20.40
2022-11-25T07:02:48.873Z,20.98
2022-11-25T07:05:58.009Z,22.60
2022-11-25T07:09:04.774Z,19.02
2022-11-25T07:12:09.704Z,25.02
2022-11-25T07:15:14.596Z,19.73
2022-11-25T07:18:19.672Z,17.48
2022-11-25T07:21:25.779Z,21.73
2022-11-25T07:24:30.701Z,19.13
2022-11-25T07:27:35.464Z,24.33
2022-11-25T07:31:22.758Z,20.58
2022-11-25T07:34:13.693Z,24.05
2022-11-25T07:37:18.558Z,21.63
2022-11-25T07:40:23.373Z,24.92
2022-11-25T07:43:28.041Z,19.58
2022-11-25T07:46:39.834Z,21.30
2022-11-25T07:49:45.025Z,26.63
2022-11-25T07:52:50.148Z,20.40
2022-11-25T07:55:55.156Z,23.50
2022-11-25T07:59:00.232Z,24.02
2022-11-25T08:02:05.319Z,26.20
2022-11-25T08:05:10.925Z,22.30
2022-11-25T08:08:16.107Z,27.25
2022-11-25T08:11:28.924Z,21.42
2022-11-25T08:14:34.988Z,23.00
2022-11-25T08:17:39.900Z,27.02
2022-11-25T08:20:44.972Z,21.83
2022-11-25T08:23:49.751Z,25.38
2022-11-25T08:26:54.941Z,25.73
2022-11-25T08:29:59.922Z,24.00
2022-11-25T08:33:07.274Z,23.95
2022-11-25T08:36:13.301Z,24.00
2022-11-25T08:39:51.307Z,24.13
2022-11-25T08:42:44.953Z,39.50
2022-11-25T08:45:50.353Z,32.67
2022-11-25T08:48:56.171Z,23.38
2022-11-25T08:52:01.037Z,33.17
2022-11-25T08:55:06.855Z,29.45
2022-11-25T08:58:13.158Z,34.95
2022-11-25T09:01:19.618Z,36.50
2022-11-25T09:04:24.712Z,22.75
2022-11-25T09:07:30.970Z,22.75
2022-11-25T09:10:38.338Z,21.98
2022-11-25T09:13:43.697Z,28.55
2022-11-25T09:16:48.465Z,27.00
2022-11-25T09:19:54.523Z,19.35
2022-11-25T09:23:00.942Z,18.27
2022-11-25T09:26:07.148Z,26.65
2022-11-25T09:29:13.581Z,26.85
2022-11-25T09:32:18.323Z,42.80
2022-11-25T09:35:24.778Z,44.47
2022-11-25T09:38:29.867Z,35.75
2022-11-25T09:42:34.392Z,31.98
2022-11-25T09:46:45.876Z,23.73
2022-11-25T09:49:58.653Z,34.63
2022-11-25T09:53:30.397Z,31.65
2022-11-25T09:56:42.723Z,27.02
2022-11-25T10:00:02.999Z,24.05
2022-11-25T10:03:39.564Z,21.48
2022-11-25T10:06:55.891Z,26.98
2022-11-25T10:10:04.858Z,26.75
2022-11-25T10:13:21.896Z,24.05
2022-11-25T10:16:57.467Z,26.65
2022-11-25T10:20:22.139Z,23.27
2022-11-25T10:23:35.510Z,20.27
2022-11-25T10:26:46.773Z,22.38
2022-11-25T10:30:07.480Z,31.52
2022-11-25T10:33:33.161Z,21.45
2022-11-25T10:36:39.776Z,21.35
2022-11-25T10:39:44.764Z,26.90
2022-11-25T10:42:49.814Z,25.52
2022-11-25T10:46:38.159Z,24.95
2022-11-25T10:50:19.644Z,25.10
2022-11-25T10:53:27.041Z,32.53
2022-11-25T10:56:31.851Z,31.20
2022-11-25T10:59:39.797Z,33.65
2022-11-25T11:02:48.297Z,43.90
2022-11-25T11:05:54.669Z,59.58
2022-11-25T11:08:59.141Z,40.75
2022-11-25T11:12:25.170Z,65.07
2022-11-25T11:15:41.007Z,39.45
2022-11-25T11:18:45.997Z,34.55
2022-11-25T11:21:51.492Z,32.33
2022-11-25T11:25:28.098Z,27.55
2022-11-25T11:28:36.927Z,36.13
2022-11-25T11:31:49.629Z,34.25
2022-11-25T11:35:21.649Z,38.75
2022-11-25T11:38:37.011Z,33.15
2022-11-25T11:41:51.079Z,34.10
2022-11-25T11:45:24.157Z,28.75
2022-11-25T11:49:30.414Z,37.20
2022-11-25T11:53:10.832Z,22.60
2022-11-25T11:57:02.632Z,20.95
2022-11-25T12:00:16.328Z,35.17
2022-11-25T12:03:24.351Z,105.13
2022-11-25T12:06:32.021Z,31.60
2022-11-25T12:09:48.057Z,28.23
2022-11-25T12:13:23.442Z,28.40
2022-11-25T12:16:45.885Z,30.85
2022-11-25T12:20:01.570Z,33.45
2022-11-25T12:23:32.593Z,33.80
2022-11-25T12:26:53.718Z,32.95
2022-11-25T12:30:12.130Z,25.10
2022-11-25T12:33:22.340Z,37.45
2022-11-25T12:36:42.463Z,31.90
2022-11-25T12:51:01.095Z,22.80
2022-11-25T12:54:24.776Z,20.30
2022-11-25T12:57:51.315Z,21.42
2022-11-25T13:01:21.908Z,22.75
2022-11-25T13:05:32.892Z,32.53
2022-11-25T13:08:56.486Z,27.48
2022-11-25T13:12:22.837Z,25.38
2022-11-25T13:15:33.374Z,19.58
2022-11-25T13:18:45.088Z,22.70
2022-11-25T13:21:57.875Z,17.98
2022-11-25T13:25:03.294Z,18.58
2022-11-25T13:28:33.812Z,22.50
2022-11-25T13:31:59.490Z,20.52
2022-11-25T13:35:32.738Z,24.33
2022-11-25T13:38:59.628Z,21.42
2022-11-25T13:42:26.622Z,25.52
2022-11-25T13:45:39.301Z,24.90
2022-11-25T13:48:44.242Z,23.85
2022-11-25T13:51:57.158Z,23.40
2022-11-25T13:55:28.157Z,28.05
2022-11-25T13:58:35.886Z,36.17
2022-11-25T14:01:42.481Z,25.25
2022-11-25T14:05:26.105Z,48.33
2022-11-25T14:08:58.646Z,23.02
2022-11-25T14:12:31.771Z,22.98
2022-11-25T14:16:33.191Z,33.00
2022-11-25T14:20:19.654Z,20.65
2022-11-25T14:23:53.247Z,36.70
2022-11-25T14:26:59.600Z,19.85
2022-11-25T14:30:09.074Z,16.25
2022-11-25T14:33:18.786Z,17.73
2022-11-25T14:36:38.976Z,80.57
2022-11-25T14:39:53.039Z,20.23
2022-11-25T14:43:03.960Z,18.55
2022-11-25T14:46:11.363Z,30.67
2022-11-25T14:49:44.050Z,87.20
2022-11-25T14:52:47.471Z,79.68
2022-11-25T14:55:52.551Z,40.63
2022-11-25T14:58:58.799Z,30.30
2022-11-25T15:02:03.629Z,23.30
2022-11-25T15:05:07.992Z,26.60
2022-11-25T15:08:22.009Z,29.88
2022-11-25T15:11:31.412Z,20.20
2022-11-25T15:14:39.255Z,53.60
2022-11-25T15:17:44.036Z,53.05
2022-11-25T15:20:59.111Z,65.93
2022-11-25T15:24:05.662Z,205.70
2022-11-25T15:27:25.174Z,56.92
2022-11-25T15:30:30.269Z,57.08
2022-11-25T15:33:35.247Z,52.80
2022-11-25T15:36:40.304Z,70.20
2022-11-25T15:39:46.793Z,60.63
2022-11-25T15:42:51.905Z,77.82
2022-11-25T15:46:02.439Z,63.30
2022-11-25T15:49:07.827Z,57.63
2022-11-25T15:52:19.093Z,33.88
2022-11-25T15:55:37.127Z,46.30
2022-11-25T15:58:42.877Z,64.53
2022-11-25T16:01:48.099Z,21.88
2022-11-25T16:04:52.978Z,21.75
2022-11-25T16:08:18.959Z,36.72
2022-11-25T16:11:25.633Z,27.30
2022-11-25T16:14:37.017Z,21.33
2022-11-25T16:17:42.236Z,21.88
2022-11-25T16:20:54.092Z,28.77
2022-11-25T16:24:07.966Z,37.83
2022-11-25T16:27:23.015Z,30.40
2022-11-25T16:30:28.585Z,25.10
2022-11-25T16:33:33.719Z,46.10
2022-11-25T16:36:38.635Z,35.83
2022-11-25T16:39:43.321Z,33.30
2022-11-25T16:42:49.715Z,43.17
2022-11-25T16:45:55.383Z,61.55
2022-11-25T16:49:08.387Z,39.38
2022-11-25T16:52:14.227Z,59.88
2022-11-25T16:55:19.254Z,123.10
2022-11-25T16:58:24.825Z,43.70
2022-11-25T17:01:30.364Z,27.90
2022-11-25T17:04:35.121Z,37.45
2022-11-25T17:07:40.216Z,34.03
2022-11-25T17:10:45.653Z,29.10
2022-11-25T17:13:52.564Z,25.80
2022-11-25T17:16:59.386Z,38.00
2022-11-25T17:20:05.400Z,38.47
2022-11-25T17:23:16.961Z,34.50
2022-11-25T17:26:26.238Z,42.40
2022-11-25T17:29:37.535Z,61.13
2022-11-25T17:32:42.485Z,41.80
2022-11-25T17:35:47.613Z,30.33
2022-11-25T17:38:52.545Z,68.22
2022-11-25T17:41:57.392Z,67.95
2022-11-25T17:45:02.233Z,50.67
2022-11-25T17:48:16.229Z,41.33
2022-11-25T17:51:21.113Z,91.18
2022-11-25T17:54:25.853Z,132.10
2022-11-25T17:57:30.745Z,67.28
2022-11-25T18:00:35.976Z,32.15
2022-11-25T18:03:40.814Z,25.05
2022-11-25T18:06:45.862Z,25.77
2022-11-25T18:09:50.584Z,45.35
2022-11-25T18:12:56.596Z,42.63
2022-11-25T18:16:02.017Z,132.57
2022-11-25T18:19:12.514Z,71.13
2022-11-25T18:22:19.686Z,51.20
2022-11-25T18:25:27.872Z,51.25
2022-11-25T18:28:32.968Z,48.60
2022-11-25T18:31:37.828Z,41.72
2022-11-25T18:34:42.873Z,39.33
2022-11-25T18:37:48.207Z,24.80
2022-11-25T18:40:54.093Z,44.55
2022-11-25T18:43:59.997Z,22.00
2022-11-25T18:47:05.506Z,40.65
2022-11-25T18:50:16.803Z,22.65
2022-11-25T18:53:21.702Z,41.33
2022-11-25T18:56:26.530Z,21.80
2022-11-25T18:59:35.222Z,16.95
2022-11-25T19:02:40.282Z,20.60
2022-11-25T19:05:45.588Z,23.83
2022-11-25T19:08:53.193Z,24.83
2022-11-25T19:11:58.267Z,29.40
2022-11-25T19:15:03.717Z,19.75
2022-11-25T19:18:12.579Z,28.88
2022-11-25T19:21:20.835Z,25.52
2022-11-25T19:24:25.560Z,19.98
2022-11-25T19:27:32.057Z,21.67
2022-11-25T19:30:37.144Z,20.52
2022-11-25T19:33:43.022Z,21.20
2022-11-25T19:36:47.735Z,22.52
2022-11-25T19:39:53.225Z,27.45
2022-11-25T19:42:58.181Z,58.08
2022-11-25T19:46:03.698Z,40.88
2022-11-25T19:49:11.840Z,43.72
2022-11-25T19:52:28.100Z,53.13
2022-11-25T19:55:33.024Z,48.95
2022-11-25T19:58:37.968Z,55.05
2022-11-25T20:01:45.058Z,59.20
2022-11-25T20:04:53.019Z,60.58
2022-11-25T20:07:58.252Z,48.58
2022-11-25T20:11:03.038Z,50.42
2022-11-25T20:14:08.249Z,64.53
2022-11-25T20:17:22.507Z,85.75
2022-11-25T20:20:32.626Z,60.92
2022-11-25T20:23:44.381Z,59.45
2022-11-25T20:26:50.265Z,58.75
2022-11-25T20:29:55.802Z,50.90
2022-11-25T20:33:00.684Z,58.38
2022-11-25T20:36:17.242Z,56.20
2022-11-25T20:39:22.357Z,58.92
2022-11-25T20:42:27.410Z,63.22
2022-11-25T20:45:32.142Z,58.40
2022-11-25T20:48:38.314Z,57.30
2022-11-25T20:51:43.064Z,62.13
2022-11-25T20:54:48.084Z,60.40
2022-11-25T20:57:53.265Z,63.50
2022-11-25T21:00:59.053Z,51.55
2022-11-25T21:04:03.953Z,58.88
2022-11-25T21:07:18.225Z,60.03
2022-11-25T21:10:29.447Z,60.72
2022-11-25T21:13:34.453Z,57.72
2022-11-25T21:16:39.389Z,63.28
2022-11-25T21:19:44.259Z,58.45
2022-11-25T21:22:56.765Z,57.28
2022-11-25T21:26:23.831Z,54.42
2022-11-25T21:29:29.046Z,57.30
2022-11-25T21:32:34.579Z,56.10
2022-11-25T21:35:41.677Z,53.22
2022-11-25T21:38:47.757Z,53.33
2022-11-25T21:41:53.514Z,53.97
2022-11-25T21:44:58.911Z,50.50
2022-11-25T21:48:04.268Z,52.50
2022-11-25T21:51:12.490Z,48.53
2022-11-25T21:54:17.700Z,47.90
2022-11-25T21:57:27.974Z,99.20
2022-11-25T22:00:33.140Z,48.70
2022-11-25T22:03:38.005Z,41.13
2022-11-25T22:06:43.148Z,52.53
2022-11-25T22:09:48.367Z,41.72
2022-11-25T22:12:53.370Z,57.78
2022-11-25T22:15:59.261Z,49.50
2022-11-25T22:19:04.257Z,45.22
2022-11-25T22:22:13.868Z,40.30
2022-11-25T22:25:18.645Z,38.65
2022-11-25T22:28:27.613Z,41.42
2022-11-25T22:31:32.449Z,39.22
2022-11-25T22:34:37.447Z,37.50
2022-11-25T22:37:43.631Z,41.22
2022-11-25T22:40:52.486Z,50.30
2022-11-25T22:44:01.391Z,44.33
2022-11-25T22:47:07.742Z,46.85
2022-11-25T22:50:21.481Z,46.88
2022-11-25T22:53:26.494Z,60.90
2022-11-25T22:56:31.491Z,53.40
2022-11-25T22:59:36.312Z,61.28
2022-11-25T23:02:41.709Z,39.97
2022-11-25T23:05:48.079Z,47.95
2022-11-25T23:08:53.082Z,45.55
2022-11-25T23:11:58.031Z,44.05
2022-11-25T23:15:02.978Z,34.67
2022-11-25T23:18:15.353Z,29.33
2022-11-25T23:21:25.085Z,40.72
2022-11-25T23:24:30.101Z,36.30
2022-11-25T23:27:34.996Z,33.83
2022-11-25T23:30:44.908Z,32.60
2022-11-25T23:33:51.010Z,27.30
2022-11-25T23:36:56.304Z,24.05
2022-11-25T23:40:01.155Z,29.92
2022-11-25T23:43:13.461Z,30.98
2022-11-25T23:46:22.552Z,30.73
2022-11-25T23:49:30.690Z,31.70
2022-11-25T23:52:35.560Z,29.17
2022-11-25T23:55:40.446Z,28.30
2022-11-25T23:58:45.213Z,28.10
